Time;durP1;ratioP1;P1;durP2;ratioP2;P2;SDS_P1;SDS_P2;PMS_P1;PMS_P2;Temp;Humidity;BMP_temperature;BMP_pressure;BME280_temperature;BME280_humidity;BME280_pressure;Samples;Min_cycle;Max_cycle;Signal;HPM_P1;HPM_P2
2023/04/10 00:00:52;;;;;;;;;15.00;12.75;;;;;15.73;42.93;101425.06;5034089;28;45000;-61
2023/04/10 00:03:18;;;;;;;;;9.25;9.25;;;;;15.65;42.73;101412.34;5033913;28;45693;-60
2023/04/10 00:05:43;;;;;;;;;16.50;13.25;;;;;15.61;42.45;101393.44;5033557;28;44950;-62
2023/04/10 00:08:08;;;;;;;;;12.25;10.50;;;;;15.64;42.59;101409.63;5032825;28;44978;-63
2023/04/10 00:10:34;;;;;;;;;13.25;10.50;;;;;15.64;43.15;101418.66;5034871;28;45313;-60
2023/04/10 00:13:02;;;;;;;;;10.75;10.00;;;;;15.63;42.67;101419.50;5016667;28;47263;-60
2023/04/10 00:15:27;;;;;;;;;14.25;10.75;;;;;15.57;43.23;101422.09;5034120;28;45021;-61
2023/04/10 00:17:54;;;;;;;;;12.75;10.75;;;;;15.44;42.75;101399.47;5032912;28;45390;-61
2023/04/10 00:20:21;;;;;;;;;13.50;12.25;;;;;15.38;42.94;101393.06;5023843;28;44912;-61
2023/04/10 00:22:46;;;;;;;;;19.00;15.75;;;;;15.44;43.26;101406.63;5032502;28;44968;-61
2023/04/10 00:25:11;;;;;;;;;9.50;7.00;;;;;15.44;43.18;101395.84;5031435;28;45376;-62
2023/04/10 00:27:37;;;;;;;;;10.00;10.00;;;;;15.55;42.98;101401.44;5024808;28;44843;-60
2023/04/10 00:30:02;;;;;;;;;8.00;8.00;;;;;15.45;42.89;101385.09;5026909;28;45166;-61
2023/04/10 00:32:27;;;;;;;;;11.75;9.00;;;;;15.55;42.78;101391.53;5014272;28;45952;-60
2023/04/10 00:34:53;;;;;;;;;12.50;10.00;;;;;15.63;42.94;101397.97;5012745;28;48033;-63
2023/04/10 00:37:18;;;;;;;;;11.25;10.50;;;;;15.64;42.60;101388.09;5030766;28;53717;-61
2023/04/10 00:39:44;;;;;;;;;12.25;11.75;;;;;15.58;42.76;101367.38;5031714;28;45093;-61
2023/04/10 00:42:09;;;;;;;;;12.25;11.00;;;;;15.68;42.97;101378.28;5031553;28;47001;-61
2023/04/10 00:44:36;;;;;;;;;15.50;9.00;;;;;15.68;42.58;101379.19;5033560;28;45097;-61
2023/04/10 00:47:04;;;;;;;;;13.50;11.75;;;;;15.62;42.80;101380.00;5014586;28;45031;-62
2023/04/10 00:49:30;;;;;;;;;12.25;11.75;;;;;15.56;43.01;101361.06;5017026;28;45182;-61
2023/04/10 00:51:56;;;;;;;;;13.25;12.25;;;;;15.59;42.70;101374.56;5033346;28;45349;-61
2023/04/10 00:54:22;;;;;;;;;14.00;11.50;;;;;15.42;43.04;101354.53;5030576;28;45181;-61
2023/04/10 00:56:49;;;;;;;;;13.50;11.50;;;;;15.45;43.37;101365.34;5030439;28;45003;-64
2023/04/10 00:59:15;;;;;;;;;12.50;12.25;;;;;15.41;43.11;101369.78;5032345;28;44891;-62
2023/04/10 01:01:40;;;;;;;;;11.00;11.00;;;;;15.40;43.53;101369.75;5033670;28;46108;-60
2023/04/10 01:04:07;;;;;;;;;12.00;10.75;;;;;15.42;43.25;101358.13;5033075;28;45152;-61
2023/04/10 01:07:16;;;;;;;;;12.50;12.25;;;;;15.43;43.50;101357.25;5032066;28;45103;-62
2023/04/10 01:10:18;;;;;;;;;12.50;12.50;;;;;15.40;43.53;101356.31;5014008;28;45073;-61
2023/04/10 01:12:54;;;;;;;;;14.50;11.50;;;;;15.36;43.86;101359.81;5032505;28;45628;-61
2023/04/10 01:15:24;;;;;;;;;19.75;14.00;;;;;15.31;43.80;101351.69;5033176;28;45012;-62
2023/04/10 01:18:20;;;;;;;;;20.50;16.25;;;;;15.26;44.19;101345.28;5032252;28;45074;-60
2023/04/10 01:20:45;;;;;;;;;12.25;12.25;;;;;15.26;44.43;101347.97;5032875;28;45138;-61
2023/04/10 01:23:49;;;;;;;;;18.50;12.25;;;;;14.64;44.14;101239.31;5015010;28;47089;-61
2023/04/10 01:26:22;;;;;;;;;13.25;12.00;;;;;15.30;44.22;101345.38;4970794;28;45099;-60
2023/04/10 01:29:03;;;;;;;;;12.25;12.25;;;;;15.31;44.23;101351.69;4970252;28;45136;-61
2023/04/10 01:31:31;;;;;;;;;14.75;14.75;;;;;15.30;44.12;101345.38;4989680;28;45214;-61
2023/04/10 01:34:06;;;;;;;;;19.50;13.25;;;;;15.29;44.42;101348.97;5031604;28;47089;-62
2023/04/10 01:36:43;;;;;;;;;13.75;13.75;;;;;15.29;44.38;101345.34;5031326;28;45127;-62
2023/04/10 01:39:10;;;;;;;;;17.25;14.25;;;;;15.17;44.33;101329.00;5031372;28;45061;-62
2023/04/10 01:41:39;;;;;;;;;12.50;11.25;;;;;15.22;44.39;101341.63;5031896;28;45301;-61
2023/04/10 01:44:06;;;;;;;;;14.00;12.25;;;;;15.21;44.21;101344.31;5032237;28;45804;-61
2023/04/10 01:46:32;;;;;;;;;14.00;11.00;;;;;15.16;44.23;101333.44;5029221;28;45941;-61
2023/04/10 01:49:01;;;;;;;;;14.75;11.00;;;;;15.11;44.73;101335.16;5030158;28;45044;-61
2023/04/10 01:51:28;;;;;;;;;12.50;12.25;;;;;14.99;44.80;101311.66;5032709;28;45025;-61
2023/04/10 01:53:54;;;;;;;;;13.25;9.75;;;;;15.12;44.69;101334.31;5031787;28;45747;-61
2023/04/10 01:56:20;;;;;;;;;10.50;10.50;;;;;15.01;44.78;101314.38;5032307;28;45066;-61
2023/04/10 01:58:46;;;;;;;;;11.00;10.75;;;;;14.99;44.59;101313.44;5032167;28;44974;-60
2023/04/10 02:01:18;;;;;;;;;16.50;13.50;;;;;15.03;44.65;101331.44;5031434;28;45269;-62
2023/04/10 02:03:44;;;;;;;;;12.25;11.00;;;;;15.00;44.79;101329.63;5005847;28;45299;-60
2023/04/10 02:06:44;;;;;;;;;13.75;13.00;;;;;14.95;44.95;101323.25;5032324;28;44985;-62
2023/04/10 02:09:18;;;;;;;;;13.75;11.75;;;;;14.95;45.01;101327.69;5029755;28;45116;-62
2023/04/10 02:11:53;;;;;;;;;13.25;11.00;;;;;14.98;44.67;101322.38;5030868;28;45325;-62
2023/04/10 02:14:21;;;;;;;;;12.00;9.25;;;;;14.90;44.61;101300.75;5031766;28;45804;-62
2023/04/10 02:16:52;;;;;;;;;10.00;8.33;;;;;14.98;44.52;101315.25;5031714;28;45183;-61
2023/04/10 02:19:19;;;;;;;;;11.00;11.00;;;;;14.99;44.96;101314.34;5030487;28;45096;-61
2023/04/10 02:21:46;;;;;;;;;10.75;10.75;;;;;15.01;44.58;101307.19;5040364;28;45136;-61
2023/04/10 02:24:12;;;;;;;;;12.25;12.00;;;;;14.99;44.80;101302.69;5030004;28;45391;-61
2023/04/10 02:26:46;;;;;;;;;17.75;15.25;;;;;14.91;45.13;101307.91;5031630;28;45005;-62
2023/04/10 02:29:12;;;;;;;;;12.50;12.00;;;;;14.89;45.16;101309.69;5030995;28;45184;-61
2023/04/10 02:31:39;;;;;;;;;14.25;13.75;;;;;14.74;45.68;101272.66;5032231;28;45025;-61
2023/04/10 02:34:04;;;;;;;;;15.00;11.00;;;;;14.85;45.10;101307.78;5031296;28;45540;-60
2023/04/10 02:36:30;;;;;;;;;13.75;13.25;;;;;14.79;45.77;101303.22;5030859;28;45187;-61
2023/04/10 02:38:55;;;;;;;;;13.00;13.00;;;;;14.68;45.71;101284.22;5030723;28;54250;-62
2023/04/10 02:41:21;;;;;;;;;11.00;11.00;;;;;14.79;45.68;101297.84;5031818;28;45269;-61
2023/04/10 02:43:46;;;;;;;;;10.50;10.50;;;;;14.79;45.24;101294.25;5031439;28;45870;-61
2023/04/10 02:46:11;;;;;;;;;18.50;15.50;;;;;14.71;45.62;101283.34;5031465;28;44967;-61
2023/04/10 02:48:37;;;;;;;;;9.75;8.75;;;;;14.72;45.68;101287.88;5030331;28;45972;-61
2023/04/10 02:51:02;;;;;;;;;14.25;12.50;;;;;14.69;45.63;101286.00;5032046;28;45124;-60
2023/04/10 02:53:28;;;;;;;;;16.25;15.00;;;;;14.64;45.86;101281.44;5028806;28;46151;-61
2023/04/10 02:55:54;;;;;;;;;14.00;13.00;;;;;14.65;45.57;101283.22;5029583;28;45117;-62
2023/04/10 02:58:20;;;;;;;;;16.50;13.25;;;;;14.49;46.17;101265.91;5031943;28;44848;-61
2023/04/10 03:00:50;;;;;;;;;14.50;14.00;;;;;14.50;45.92;101265.94;5032330;28;45165;-62
2023/04/10 03:03:18;;;;;;;;;16.50;15.00;;;;;14.53;46.16;101279.41;5013634;28;47022;-61
2023/04/10 03:05:45;;;;;;;;;15.50;14.00;;;;;14.42;46.09;101264.88;5032163;28;45176;-61
2023/04/10 03:08:14;;;;;;;;;14.25;12.50;;;;;14.45;46.50;101280.16;5031289;28;45096;-61
2023/04/10 03:10:42;;;;;;;;;15.75;14.25;;;;;14.37;46.56;101256.72;5027389;28;45451;-61
2023/04/10 03:13:07;;;;;;;;;15.25;13.75;;;;;14.46;46.53;101271.22;5013845;28;47880;-62
2023/04/10 03:15:33;;;;;;;;;12.00;12.00;;;;;14.46;46.32;101273.91;5030879;28;45051;-61
2023/04/10 03:17:58;;;;;;;;;12.75;10.50;;;;;14.31;46.26;101250.31;5031128;28;45130;-60
2023/04/10 03:20:23;;;;;;;;;11.25;10.50;;;;;14.42;46.86;101269.34;5030378;28;45337;-62
2023/04/10 03:22:49;;;;;;;;;12.75;12.25;;;;;14.32;46.46;101244.97;5031065;28;45158;-61
2023/04/10 03:25:15;;;;;;;;;13.25;12.75;;;;;14.33;46.54;101256.63;5031014;28;45073;-62
2023/04/10 03:27:40;;;;;;;;;12.00;9.25;;;;;13.84;46.63;101178.66;5028829;28;44995;-61
2023/04/10 03:30:07;;;;;;;;;12.50;11.25;;;;;14.28;46.60;101256.53;5031498;28;45092;-61
2023/04/10 03:32:32;;;;;;;;;16.25;13.00;;;;;14.06;46.60;101216.72;5031209;28;45349;-62
2023/04/10 03:34:58;;;;;;;;;14.00;13.00;;;;;14.26;46.64;101255.59;5031098;28;45040;-62
2023/04/10 03:37:23;;;;;;;;;13.75;12.00;;;;;14.25;46.97;101247.50;5031327;28;45179;-61
2023/04/10 03:39:48;;;;;;;;;18.75;17.00;;;;;14.25;46.86;101250.19;5031349;28;45215;-61
2023/04/10 03:42:14;;;;;;;;;13.75;13.75;;;;;14.16;46.72;101235.72;5029761;28;45291;-61
2023/04/10 03:44:39;;;;;;;;;13.25;11.50;;;;;14.22;46.70;101240.28;5031103;28;44879;-62
2023/04/10 03:47:05;;;;;;;;;14.00;13.00;;;;;14.19;46.61;101246.53;5030162;28;45093;-63
2023/04/10 03:49:30;;;;;;;;;13.75;13.00;;;;;14.06;46.79;101231.03;5030986;28;44902;-64
2023/04/10 03:51:55;;;;;;;;;14.00;12.50;;;;;14.18;46.59;101243.81;5031029;28;45567;-62
2023/04/10 03:54:20;;;;;;;;;12.25;12.25;;;;;13.93;46.47;101205.69;5029125;28;53314;-61
2023/04/10 03:56:46;;;;;;;;;15.00;12.00;;;;;14.10;46.68;101223.94;5030494;28;45116;-61
2023/04/10 03:59:11;;;;;;;;;15.25;13.00;;;;;14.14;46.39;101233.88;5030791;28;44969;-62
2023/04/10 04:01:36;;;;;;;;;9.75;9.75;;;;;14.10;46.41;101224.84;5030010;28;57899;-61
2023/04/10 04:04:02;;;;;;;;;13.25;9.25;;;;;14.15;46.83;101230.31;5030358;28;45074;-61
2023/04/10 04:06:27;;;;;;;;;17.50;12.75;;;;;13.98;47.27;101200.44;5031206;28;45135;-61
2023/04/10 04:08:53;;;;;;;;;14.75;13.75;;;;;13.97;47.39;101201.28;5030682;28;44977;-62
2023/04/10 04:11:18;;;;;;;;;14.00;14.00;;;;;14.04;47.51;101223.81;5030689;28;45548;-62
2023/04/10 04:13:43;;;;;;;;;16.50;14.00;;;;;14.05;47.35;101233.69;5031724;28;45188;-61
2023/04/10 04:16:09;;;;;;;;;14.75;12.50;;;;;14.00;46.97;101233.59;5033406;28;53670;-61
2023/04/10 04:18:35;;;;;;;;;11.00;10.75;;;;;14.01;46.73;101227.34;5034150;28;45164;-62
2023/04/10 04:21:00;;;;;;;;;13.75;12.25;;;;;13.99;47.31;101219.28;5033621;28;45618;-62
2023/04/10 04:23:25;;;;;;;;;11.25;10.25;;;;;14.06;47.07;101232.84;5033945;28;45006;-62
2023/04/10 04:25:53;;;;;;;;;14.50;12.00;;;;;14.03;47.30;101232.75;5032189;28;45142;-61
2023/04/10 04:28:18;;;;;;;;;11.00;11.00;;;;;13.87;47.56;101218.09;5030706;28;45207;-62
2023/04/10 04:30:44;;;;;;;;;12.25;12.25;;;;;13.97;47.03;101233.53;5032084;28;46714;-62
2023/04/10 04:33:09;;;;;;;;;10.25;10.25;;;;;13.97;47.26;101228.16;5027073;28;45387;-61
2023/04/10 04:35:34;;;;;;;;;13.50;13.50;;;;;14.03;47.08;101241.72;5030320;28;45890;-61
2023/04/10 04:38:00;;;;;;;;;11.25;8.50;;;;;13.99;47.28;101232.69;5030480;28;45319;-61
2023/04/10 04:40:25;;;;;;;;;13.50;11.25;;;;;13.97;47.42;101231.78;5029835;28;45635;-61
2023/04/10 04:42:51;;;;;;;;;18.25;15.00;;;;;14.00;47.10;101234.50;5032567;28;44993;-61
2023/04/10 04:45:16;;;;;;;;;50.75;40.50;;;;;13.92;47.69;101235.22;5031559;28;45272;-61
2023/04/10 04:47:41;;;;;;;;;15.25;13.75;;;;;13.92;47.21;101236.13;5015159;28;45035;-61
2023/04/10 04:50:08;;;;;;;;;11.50;11.50;;;;;13.93;47.11;101234.34;5033430;28;45314;-61
2023/04/10 04:52:34;;;;;;;;;14.00;12.50;;;;;13.88;47.20;101225.31;5033651;28;44893;-60
2023/04/10 04:54:59;;;;;;;;;14.25;12.75;;;;;13.98;47.33;101235.34;5024491;28;45009;-61
2023/04/10 04:57:25;;;;;;;;;15.00;13.25;;;;;14.01;47.75;101246.16;5028562;28;44931;-61
2023/04/10 04:59:50;;;;;;;;;18.25;15.75;;;;;14.02;47.69;101245.25;5033435;28;45719;-61
2023/04/10 05:02:17;;;;;;;;;14.00;11.25;;;;;13.98;47.44;101251.47;5032288;28;45046;-60
2023/04/10 05:04:43;;;;;;;;;12.00;10.00;;;;;13.87;47.78;101232.44;5018364;28;45110;-61
2023/04/10 05:07:08;;;;;;;;;12.75;11.25;;;;;14.03;47.36;101251.56;5033823;28;45001;-61
2023/04/10 05:09:33;;;;;;;;;12.00;11.25;;;;;13.96;47.99;101239.78;5032925;28;45843;-61
2023/04/10 05:11:59;;;;;;;;;9.00;9.00;;;;;13.88;47.69;101228.88;5032921;28;45001;-61
2023/04/10 05:14:24;;;;;;;;;10.00;10.00;;;;;13.93;47.87;101234.34;5032303;28;45421;-61
2023/04/10 05:16:49;;;;;;;;;11.50;10.25;;;;;13.93;47.74;101245.09;5033630;28;45638;-62
2023/04/10 05:19:15;;;;;;;;;11.25;10.00;;;;;13.99;48.01;101248.81;5031254;28;45461;-61
2023/04/10 05:21:40;;;;;;;;;11.50;11.50;;;;;13.93;47.82;101240.63;5030352;28;44989;-61
2023/04/10 05:24:06;;;;;;;;;14.00;11.50;;;;;14.01;47.98;101251.53;5031961;28;45367;-62
2023/04/10 05:26:31;;;;;;;;;13.50;10.50;;;;;14.03;48.04;101251.56;5032953;28;44903;-61
2023/04/10 05:28:56;;;;;;;;;14.00;11.25;;;;;14.01;47.88;101259.59;5032898;28;45889;-61
2023/04/10 05:31:22;;;;;;;;;12.00;12.00;;;;;14.00;48.32;101253.28;5031411;28;45088;-61
2023/04/10 05:33:47;;;;;;;;;12.25;12.25;;;;;13.99;47.72;101256.88;5032784;28;45078;-61
2023/04/10 05:36:13;;;;;;;;;14.00;11.00;;;;;13.99;47.90;101253.25;5033080;28;45035;-62
2023/04/10 05:38:38;;;;;;;;;15.75;13.00;;;;;13.95;48.46;101267.53;5032161;28;45127;-62
2023/04/10 05:41:03;;;;;;;;;16.50;15.00;;;;;13.95;48.01;101256.78;5031996;28;46535;-61
2023/04/10 05:43:28;;;;;;;;;12.25;12.25;;;;;14.05;48.32;101264.16;5032718;28;45676;-62
2023/04/10 05:45:54;;;;;;;;;15.75;12.75;;;;;13.97;48.31;101249.66;5032525;28;44901;-62
2023/04/10 05:48:19;;;;;;;;;17.50;14.00;;;;;14.05;47.99;101252.50;5031673;28;45234;-61
2023/04/10 05:50:45;;;;;;;;;20.50;15.50;;;;;14.05;48.40;101241.75;5032024;28;45127;-60
2023/04/10 05:53:13;;;;;;;;;17.50;13.75;;;;;14.08;47.90;101244.50;5030890;28;45085;-61
2023/04/10 05:55:39;;;;;;;;;14.75;11.75;;;;;14.03;47.94;101241.72;4993801;28;45465;-63
2023/04/10 05:58:04;;;;;;;;;22.75;16.00;;;;;14.10;48.23;101256.19;5015490;28;45252;-63
2023/04/10 06:00:30;;;;;;;;;17.00;14.50;;;;;14.13;48.02;101256.25;5032316;28;44942;-62
2023/04/10 06:02:55;;;;;;;;;17.75;14.25;;;;;14.07;48.01;101245.38;5032184;28;44967;-62
2023/04/10 06:05:21;;;;;;;;;17.00;15.50;;;;;14.03;47.99;101248.88;5031060;28;45074;-63
2023/04/10 06:07:46;;;;;;;;;20.50;16.00;;;;;14.08;47.83;101253.47;5030085;28;46182;-61
2023/04/10 06:10:12;;;;;;;;;18.00;14.00;;;;;14.04;48.24;101242.63;5028487;28;45010;-63
2023/04/10 06:12:38;;;;;;;;;19.25;15.00;;;;;13.99;48.50;101245.19;5025684;28;45712;-62
2023/04/10 06:15:03;;;;;;;;;20.75;17.50;;;;;13.99;48.15;101245.19;5032775;28;45187;-62
2023/04/10 06:17:32;;;;;;;;;18.25;14.00;;;;;14.05;48.16;101255.19;5030679;28;45241;-62
2023/04/10 06:20:07;;;;;;;;;23.75;18.50;;;;;14.14;48.01;101261.66;5031039;28;45006;-62
2023/04/10 06:22:32;;;;;;;;;18.50;13.75;;;;;14.03;48.31;101244.41;5010283;28;45150;-61
2023/04/10 06:24:58;;;;;;;;;17.50;15.75;;;;;14.14;48.33;101269.72;5019118;28;45066;-60
2023/04/10 06:27:23;;;;;;;;;14.25;14.25;;;;;14.15;48.23;101263.44;5031946;28;46176;-60
2023/04/10 06:29:49;;;;;;;;;13.00;11.50;;;;;14.09;48.12;101257.97;5032393;28;45072;-61
2023/04/10 06:32:14;;;;;;;;;13.50;12.75;;;;;14.01;48.10;101233.63;5032877;28;45137;-61
2023/04/10 06:34:39;;;;;;;;;15.25;12.50;;;;;14.28;48.08;101266.41;5028467;28;45175;-60
2023/04/10 06:37:06;;;;;;;;;15.00;13.25;;;;;14.19;47.96;101256.38;5012498;28;46862;-61
2023/04/10 06:39:31;;;;;;;;;14.75;13.25;;;;;14.31;48.03;101271.84;5010588;28;62003;-61
2023/04/10 06:41:57;;;;;;;;;13.25;11.50;;;;;14.30;47.92;101273.59;5025798;28;45069;-61
2023/04/10 06:44:22;;;;;;;;;17.00;14.00;;;;;14.27;48.09;101268.19;5030577;28;45190;-61
2023/04/10 06:46:47;;;;;;;;;21.75;14.25;;;;;14.36;47.71;101268.34;5032133;28;45516;-61
2023/04/10 06:49:13;;;;;;;;;18.25;16.00;;;;;14.25;48.02;101248.41;5030529;28;45076;-61
2023/04/10 06:51:38;;;;;;;;;12.50;12.50;;;;;14.18;47.72;101223.19;5028709;28;45033;-61
2023/04/10 06:54:03;;;;;;;;;16.00;16.00;;;;;14.21;47.97;101218.78;5029882;28;45346;-62
2023/04/10 06:56:29;;;;;;;;;15.00;14.50;;;;;14.42;47.99;101251.44;5028441;28;45250;-61
2023/04/10 06:58:55;;;;;;;;;17.50;15.75;;;;;14.35;47.91;101230.69;5026342;28;56180;-61
2023/04/10 07:01:20;;;;;;;;;14.75;13.25;;;;;14.47;47.15;101241.69;5025990;28;45115;-60
2023/04/10 07:03:45;;;;;;;;;17.25;14.25;;;;;14.51;47.63;101246.22;5028163;28;44911;-60
2023/04/10 07:06:11;;;;;;;;;18.00;14.00;;;;;14.56;47.55;101249.88;5029148;28;45495;-61
2023/04/10 07:08:36;;;;;;;;;11.75;11.75;;;;;14.62;47.42;101245.53;5031257;28;45044;-61
2023/04/10 07:11:01;;;;;;;;;15.00;13.00;;;;;14.59;47.09;101224.88;5030274;28;45254;-61
2023/04/10 07:13:27;;;;;;;;;13.75;12.50;;;;;14.63;47.22;101223.16;5031286;28;45285;-61
2023/04/10 07:15:52;;;;;;;;;16.50;14.75;;;;;14.63;46.99;101213.28;5030879;28;45440;-61
2023/04/10 07:18:17;;;;;;;;;15.00;10.75;;;;;14.61;47.51;101203.41;5026379;28;55828;-60
2023/04/10 07:20:43;;;;;;;;;14.50;14.25;;;;;14.73;47.42;101222.41;5034509;28;45168;-61
2023/04/10 07:23:08;;;;;;;;;14.00;13.00;;;;;14.73;46.86;101208.97;5030561;28;45188;-61
2023/04/10 07:25:33;;;;;;;;;16.25;15.00;;;;;14.79;46.86;101214.47;5029082;28;48867;-61
2023/04/10 07:27:59;;;;;;;;;15.75;14.00;;;;;14.86;46.99;101215.47;5029839;28;45224;-62
2023/04/10 07:30:24;;;;;;;;;14.25;14.25;;;;;14.81;46.93;101218.06;5029885;28;45129;-62
2023/04/10 07:32:50;;;;;;;;;17.75;15.00;;;;;14.80;46.85;101199.22;5030487;28;45116;-62
2023/04/10 07:35:15;;;;;;;;;16.50;13.75;;;;;14.80;47.00;101196.53;5029230;28;45670;-62
2023/04/10 07:37:42;;;;;;;;;14.75;14.00;;;;;14.82;46.98;101193.00;5029998;28;44996;-62
2023/04/10 07:40:08;;;;;;;;;13.75;11.00;;;;;14.93;46.78;101204.84;5029508;28;45174;-61
2023/04/10 07:42:34;;;;;;;;;14.25;11.00;;;;;14.77;46.63;101165.13;5030105;28;45079;-61
2023/04/10 07:44:59;;;;;;;;;9.00;9.00;;;;;15.01;46.61;101190.59;5029165;28;45448;-63
2023/04/10 07:47:25;;;;;;;;;10.25;8.25;;;;;15.09;46.75;101194.28;5027537;28;45046;-61
2023/04/10 07:49:50;;;;;;;;;11.25;11.25;;;;;15.04;46.71;101196.03;5032444;28;45209;-62
2023/04/10 07:52:15;;;;;;;;;16.00;14.00;;;;;15.14;46.26;101202.44;5030927;28;45835;-61
2023/04/10 07:54:41;;;;;;;;;15.25;15.25;;;;;15.16;46.83;101206.94;5033985;28;46107;-62
2023/04/10 07:57:06;;;;;;;;;17.25;13.25;;;;;15.15;46.39;101188.13;5031198;28;45212;-61
2023/04/10 07:59:33;;;;;;;;;13.50;13.25;;;;;15.19;46.56;101184.56;5033589;28;45091;-62
2023/04/10 08:01:58;;;;;;;;;17.00;15.50;;;;;15.06;46.39;101161.97;5029402;28;44993;-62
2023/04/10 08:04:24;;;;;;;;;18.00;13.75;;;;;15.22;46.41;101185.53;5032026;28;45498;-62
2023/04/10 08:06:49;;;;;;;;;13.25;11.50;;;;;15.16;46.15;101189.91;5032289;28;45516;-62
2023/04/10 08:09:14;;;;;;;;;16.50;14.50;;;;;15.09;46.82;101180.84;5031842;28;45687;-62
2023/04/10 08:11:40;;;;;;;;;16.50;12.50;;;;;15.24;46.17;101204.38;5032392;28;47586;-62
2023/04/10 08:14:05;;;;;;;;;12.75;12.75;;;;;15.16;46.12;101195.28;5033969;28;45657;-61
2023/04/10 08:16:33;;;;;;;;;17.00;13.75;;;;;15.30;46.20;101210.75;5032569;28;46542;-62
2023/04/10 08:19:00;;;;;;;;;21.00;14.00;;;;;15.35;46.28;101207.25;5031581;28;44985;-62
2023/04/10 08:21:26;;;;;;;;;17.00;14.00;;;;;15.52;45.93;101215.53;5015353;28;45607;-62
2023/04/10 08:23:53;;;;;;;;;15.25;12.50;;;;;15.54;45.63;101201.22;5031821;28;45466;-62
2023/04/10 08:26:20;;;;;;;;;14.50;12.25;;;;;15.69;45.32;101202.28;5029953;28;45072;-62
2023/04/10 08:28:48;;;;;;;;;12.75;12.50;;;;;15.78;45.23;101205.16;5031770;28;45127;-62
2023/04/10 08:31:14;;;;;;;;;12.50;11.00;;;;;15.78;44.98;101179.09;5032720;28;45358;-61
2023/04/10 08:33:40;;;;;;;;;15.00;14.25;;;;;16.00;45.22;101201.84;5014748;28;45456;-61
2023/04/10 08:36:07;;;;;;;;;16.25;14.75;;;;;16.08;44.67;101193.81;5032670;28;45259;-62
2023/04/10 08:38:32;;;;;;;;;18.25;16.00;;;;;16.12;44.08;101192.97;5032921;28;45016;-62
2023/04/10 08:40:58;;;;;;;;;12.50;11.25;;;;;16.21;44.29;101211.91;5032939;28;45128;-62
2023/04/10 08:43:24;;;;;;;;;10.25;9.00;;;;;16.19;43.56;101191.25;5033662;28;45836;-63
2023/04/10 08:45:51;;;;;;;;;8.25;6.50;;;;;16.26;43.64;101197.59;5017881;28;45187;-62
2023/04/10 08:48:18;;;;;;;;;12.33;12.33;;;;;16.27;43.30;101205.72;5030297;28;45260;-62
2023/04/10 08:50:45;;;;;;;;;10.75;9.75;;;;;16.30;43.86;101205.75;5029474;28;44997;-62
2023/04/10 08:53:13;;;;;;;;;11.33;9.00;;;;;16.26;44.00;101178.72;5031541;28;45280;-62
2023/04/10 08:55:40;;;;;;;;;7.33;7.33;;;;;16.42;44.32;101198.66;5031192;28;45063;-62
2023/04/10 08:58:07;;;;;;;;;12.00;9.00;;;;;16.46;43.84;101203.19;5030954;28;44982;-61
2023/04/10 09:00:34;;;;;;;;;12.67;8.67;;;;;16.51;44.19;101201.44;5016470;28;45255;-61
2023/04/10 09:03:01;;;;;;;;;13.33;10.33;;;;;16.58;44.61;101201.50;5031229;28;45881;-60
2023/04/10 09:05:27;;;;;;;;;14.67;12.33;;;;;16.57;44.96;101186.19;5029798;28;45179;-61
2023/04/10 09:07:52;;;;;;;;;11.33;9.00;;;;;16.66;45.21;101201.56;5031044;28;45263;-61
2023/04/10 09:10:18;;;;;;;;;14.75;12.25;;;;;16.71;45.62;101191.75;5032030;28;45137;-62
2023/04/10 09:12:45;;;;;;;;;9.33;8.67;;;;;16.73;46.35;101197.16;5032820;28;45164;-62
2023/04/10 09:15:10;;;;;;;;;10.33;9.00;;;;;16.80;46.77;101185.50;5031239;28;45502;-62
2023/04/10 09:17:36;;;;;;;;;13.00;11.00;;;;;16.75;46.10;101176.47;5031927;28;45039;-62
2023/04/10 09:20:01;;;;;;;;;11.00;11.00;;;;;16.81;47.12;101176.50;5031514;28;45068;-61
2023/04/10 09:22:34;;;;;;;;;14.75;10.75;;;;;16.89;46.62;101187.38;5031858;28;45437;-61
2023/04/10 09:25:01;;;;;;;;;14.50;13.25;;;;;16.93;46.94;101173.03;5029559;28;46016;-60
2023/04/10 09:27:34;;;;;;;;;12.33;9.67;;;;;16.95;46.65;101172.13;5031576;28;45244;-61
2023/04/10 09:30:00;;;;;;;;;11.67;10.00;;;;;16.78;46.95;101144.13;5030895;28;45130;-61
2023/04/10 09:32:39;;;;;;;;;8.33;6.33;;;;;16.88;46.32;101166.72;5032942;28;45738;-61
2023/04/10 09:35:06;;;;;;;;;10.00;9.67;;;;;16.88;46.19;101159.50;5031203;28;45239;-61
2023/04/10 09:37:32;;;;;;;;;11.33;10.33;;;;;16.90;46.17;101151.41;5031593;28;45137;-61
2023/04/10 09:39:57;;;;;;;;;11.00;9.00;;;;;16.96;46.04;101159.56;5032356;28;45035;-61
2023/04/10 09:42:36;;;;;;;;;11.25;8.75;;;;;17.10;45.96;101149.75;5031504;28;45643;-61
2023/04/10 09:45:03;;;;;;;;;8.67;8.67;;;;;17.07;45.96;101135.31;5031674;28;44930;-61
2023/04/10 09:47:29;;;;;;;;;8.67;8.67;;;;;17.17;45.34;101138.97;5030867;28;44930;-62
2023/04/10 09:49:59;;;;;;;;;10.00;10.00;;;;;17.15;45.08;101133.56;5032809;28;44937;-61
2023/04/10 09:52:30;;;;;;;;;11.33;8.67;;;;;17.14;44.93;101134.44;5030038;28;45478;-62
2023/04/10 09:55:01;;;;;;;;;8.00;7.67;;;;;17.28;45.16;101146.25;5031482;28;45298;-62
2023/04/10 09:57:29;;;;;;;;;10.67;7.33;;;;;17.32;44.42;101125.53;5015485;28;46458;-62
2023/04/10 09:59:57;;;;;;;;;9.00;9.00;;;;;17.31;44.01;101119.25;5031298;28;45222;-61
2023/04/10 10:02:27;;;;;;;;;10.33;9.00;;;;;17.41;44.23;101131.00;5031216;28;46478;-61
2023/04/10 10:04:53;;;;;;;;;10.33;7.67;;;;;17.37;44.21;101110.25;5029608;28;44950;-62
2023/04/10 10:07:22;;;;;;;;;13.00;11.00;;;;;17.52;43.69;101124.72;5031745;28;45196;-61
2023/04/10 10:09:49;;;;;;;;;11.00;10.33;;;;;17.54;43.52;101140.06;5029688;28;45218;-61
2023/04/10 10:12:21;;;;;;;;;7.67;7.67;;;;;17.55;43.01;101132.84;5030066;28;45343;-63
2023/04/10 10:15:29;;;;;;;;;8.33;8.00;;;;;17.50;42.97;101125.66;5030588;28;45022;-61
2023/04/10 10:18:20;;;;;;;;;12.33;8.67;;;;;17.53;42.72;101122.03;5024977;28;45135;-61
2023/04/10 10:20:46;;;;;;;;;9.33;9.33;;;;;17.61;42.42;101119.38;5027589;28;45291;-61
2023/04/10 10:23:14;;;;;;;;;10.33;9.33;;;;;17.53;42.10;101099.53;5030549;28;45418;-61
2023/04/10 10:25:42;;;;;;;;;8.67;8.67;;;;;17.58;42.42;101119.38;5029713;28;45057;-61
2023/04/10 10:28:11;;;;;;;;;5.67;5.33;;;;;17.52;42.66;101100.41;5033123;28;45302;-61
2023/04/10 10:30:37;;;;;;;;;7.33;7.33;;;;;17.57;41.90;101107.66;5030097;28;45095;-61
2023/04/10 10:33:06;;;;;;;;;9.00;8.33;;;;;17.47;42.18;101098.63;5012307;28;47652;-60
2023/04/10 10:35:34;;;;;;;;;6.33;4.33;;;;;17.41;42.12;101089.59;5031274;28;44976;-61
2023/04/10 10:38:02;;;;;;;;;7.00;7.00;;;;;17.37;42.36;101091.34;5031609;28;45036;-62
2023/04/10 10:40:53;;;;;;;;;11.00;9.33;;;;;17.41;42.21;101106.69;5029460;28;45293;-61
2023/04/10 10:43:31;;;;;;;;;8.67;8.67;;;;;17.37;41.94;101098.56;5030681;28;45668;-62
2023/04/10 10:46:13;;;;;;;;;11.33;8.33;;;;;17.32;42.45;101079.63;5030143;28;44992;-61
2023/04/10 10:48:38;;;;;;;;;7.33;7.00;;;;;17.36;42.93;101085.97;5030247;28;45143;-61
2023/04/10 10:51:04;;;;;;;;;11.00;8.00;;;;;17.33;43.05;101083.25;5029611;28;45161;-62
2023/04/10 10:53:42;;;;;;;;;7.67;6.67;;;;;17.31;42.88;101094.06;5030739;28;45247;-60
2023/04/10 10:56:17;;;;;;;;;9.33;9.33;;;;;17.31;43.42;101083.25;5029874;28;45084;-61
2023/04/10 10:58:50;;;;;;;;;6.33;6.33;;;;;17.33;43.39;101084.16;5030087;28;45376;-62
2023/04/10 11:01:16;;;;;;;;;8.67;8.67;;;;;17.30;43.56;101067.94;5030424;28;44937;-61
2023/04/10 11:03:45;;;;;;;;;10.00;9.67;;;;;17.46;43.38;101080.59;5030138;28;45953;-62
2023/04/10 11:06:15;;;;;;;;;8.00;8.00;;;;;17.54;43.18;101077.00;5031179;28;45201;-62
2023/04/10 11:08:44;;;;;;;;;6.00;5.33;;;;;17.54;42.12;101075.22;5030884;28;45387;-60
2023/04/10 11:11:17;;;;;;;;;8.00;6.33;;;;;17.55;41.75;101081.53;5030460;28;45002;-63
2023/04/10 11:13:48;;;;;;;;;8.33;7.33;;;;;17.61;41.76;101082.44;5031183;28;45905;-61